La Calamine, Belgium
Current Conditions -  °F | °C
As of 4:55 AM on Sunday 25 Jan 2015 (Local Time) from EHBK Reporting Station
Few Clouds Few Clouds  
Wind Chill: 25°   Ceiling: Unl
Heat Index: 32°   Visibility: 4mi
Dew Point: 30°   Wind: 8mph
Humidity: 93%   Direction: 230°SW
Pressure: 30.36"   Gusts: NA
Location:  50.72°N, 6.01°E
Report Text: EHBK 250355Z AUTO 23007KT 6000 FEW024 M00/M01 Q1028
Loading
Personal Weather Stations






























Interactive Weather Map New forecast layout! Learn more

10-Day Weather Forecast

Advertisements
Track Severe Weather on mobile